Time;durP1;ratioP1;P1;durP2;ratioP2;P2;SDS_P1;SDS_P2;PMS_P1;PMS_P2;Temp;Humidity;BMP_temperature;BMP_pressure;BME280_temperature;BME280_humidity;BME280_pressure;Samples;Min_cycle;Max_cycle;Signal;HPM_P1;HPM_P2
2023/06/16 00:01:15;;;;;;;7.50;6.20;;;17.90;99.90;;;;;;5138729;28;20452;-53
2023/06/16 00:03:49;;;;;;;10.30;6.87;;;17.80;99.90;;;;;;5138579;28;20497;-52
2023/06/16 00:06:19;;;;;;;8.40;6.90;;;;;;;;;;5137339;28;20545;-56
2023/06/16 00:08:47;;;;;;;13.70;6.13;;;17.60;99.90;;;;;;5136436;28;20512;-57
2023/06/16 00:11:14;;;;;;;9.30;7.60;;;;;;;;;;5136035;28;20460;-53
2023/06/16 00:13:42;;;;;;;10.90;6.83;;;;;;;;;;5136494;28;20448;-56
2023/06/16 00:16:10;;;;;;;8.27;6.90;;;;;;;;;;5135088;28;20471;-53
2023/06/16 00:19:03;;;;;;;8.40;6.87;;;18.20;99.90;;;;;;5136748;28;20541;-51
2023/06/16 00:21:35;;;;;;;8.67;6.83;;;17.70;99.90;;;;;;5136668;28;20457;-55
2023/06/16 00:24:03;;;;;;;6.93;5.80;;;17.50;99.90;;;;;;5136730;28;20444;-53
2023/06/16 00:26:29;;;;;;;8.17;7.20;;;17.60;99.90;;;;;;5134555;28;20437;-51
2023/06/16 00:28:57;;;;;;;7.40;6.27;;;;;;;;;;5132861;28;20464;-55
2023/06/16 00:31:25;;;;;;;8.33;6.80;;;;;;;;;;5137558;28;20452;-51
2023/06/16 00:33:53;;;;;;;10.53;6.27;;;17.60;99.90;;;;;;5138657;28;20425;-53
2023/06/16 00:36:20;;;;;;;7.67;5.60;;;;;;;;;;5138775;28;20488;-48
2023/06/16 00:38:48;;;;;;;9.73;5.23;;;;;;;;;;5138415;28;20461;-48
2023/06/16 00:41:15;;;;;;;6.40;5.23;;;;;;;;;;5136690;28;20439;-50
2023/06/16 00:43:43;;;;;;;9.60;6.37;;;17.70;99.90;;;;;;5135904;28;20437;-53
2023/06/16 00:46:12;;;;;;;11.07;8.30;;;17.60;99.90;;;;;;5136447;28;20478;-54
2023/06/16 00:48:39;;;;;;;10.63;6.03;;;17.50;99.90;;;;;;5136759;28;20456;-51
2023/06/16 00:51:08;;;;;;;7.30;5.60;;;;;;;;;;5136584;28;20444;-56
2023/06/16 00:53:35;;;;;;;6.77;5.93;;;17.30;99.90;;;;;;5136423;28;20424;-57
2023/06/16 00:56:02;;;;;;;7.50;6.80;;;;;;;;;;5138075;28;20475;-52
2023/06/16 00:58:31;;;;;;;7.13;5.23;;;17.70;99.90;;;;;;5136838;28;20476;-57
2023/06/16 01:00:59;;;;;;;6.77;5.20;;;17.00;99.90;;;;;;5136022;28;20476;-55
2023/06/16 01:03:27;;;;;;;5.80;5.20;;;17.50;99.90;;;;;;5136360;28;20451;-54
2023/06/16 01:06:03;;;;;;;12.60;5.80;;;17.10;99.90;;;;;;5131174;28;20483;-56
2023/06/16 01:08:44;;;;;;;7.30;5.10;;;17.00;99.90;;;;;;5135697;28;20421;-50
2023/06/16 01:11:20;;;;;;;7.87;5.53;;;17.00;99.90;;;;;;5136244;28;20429;-53
2023/06/16 01:13:54;;;;;;;8.47;5.40;;;17.10;99.90;;;;;;5136136;28;20478;-51
2023/06/16 01:16:28;;;;;;;6.50;5.17;;;16.80;99.90;;;;;;5130688;28;20458;-53
2023/06/16 01:18:56;;;;;;;7.83;5.20;;;;;;;;;;5132728;28;20476;-49
2023/06/16 01:21:37;;;;;;;7.97;5.93;;;16.70;99.90;;;;;;5136169;28;20450;-55
2023/06/16 01:24:08;;;;;;;9.73;5.50;;;16.90;99.90;;;;;;5136038;28;20478;-51
2023/06/16 01:26:38;;;;;;;6.50;5.30;;;16.70;99.90;;;;;;5135210;28;20565;-54
2023/06/16 01:29:11;;;;;;;8.50;5.20;;;17.10;99.90;;;;;;5135818;28;20469;-52
2023/06/16 01:31:39;;;;;;;6.03;4.67;;;16.60;99.90;;;;;;5136671;28;20519;-56
2023/06/16 01:34:08;;;;;;;7.63;5.63;;;16.80;99.90;;;;;;5135442;28;20425;-53
2023/06/16 01:36:38;;;;;;;7.70;5.23;;;16.70;99.90;;;;;;5135430;28;20436;-55
2023/06/16 01:39:08;;;;;;;7.97;5.73;;;16.70;99.90;;;;;;5135989;28;20460;-51
2023/06/16 01:41:37;;;;;;;11.27;6.00;;;16.70;99.90;;;;;;5136044;28;20433;-57
2023/06/16 01:44:04;;;;;;;7.70;6.47;;;;;;;;;;5135625;28;20452;-56
2023/06/16 01:46:32;;;;;;;8.70;5.50;;;16.70;99.90;;;;;;5134249;28;20421;-58
2023/06/16 01:49:00;;;;;;;8.27;5.70;;;16.70;99.90;;;;;;5129336;28;20467;-58
2023/06/16 01:51:27;;;;;;;7.77;5.60;;;;;;;;;;5133630;28;20441;-56
2023/06/16 01:53:54;;;;;;;7.43;5.27;;;;;;;;;;5135826;28;20456;-52
2023/06/16 01:56:22;;;;;;;7.90;5.83;;;16.30;99.90;;;;;;5131191;28;20465;-57
2023/06/16 01:58:49;;;;;;;5.77;4.70;;;;;;;;;;5135431;28;20594;-52
2023/06/16 02:01:27;;;;;;;8.00;5.50;;;16.60;99.90;;;;;;5135666;28;20452;-52
2023/06/16 02:03:57;;;;;;;8.87;5.20;;;16.60;99.90;;;;;;5136373;28;20452;-54
2023/06/16 02:06:28;;;;;;;11.40;5.30;;;16.70;99.90;;;;;;5135572;28;20454;-54
2023/06/16 02:08:57;;;;;;;5.70;4.90;;;16.70;99.90;;;;;;5132467;28;20487;-55
2023/06/16 02:11:26;;;;;;;5.63;4.50;;;;;;;;;;5137026;28;20421;-56
2023/06/16 02:13:53;;;;;;;4.77;4.10;;;16.60;99.90;;;;;;5136192;28;20441;-55
2023/06/16 02:16:20;;;;;;;6.07;4.93;;;;;;;;;;5135027;28;20444;-54
2023/06/16 02:18:53;;;;;;;9.23;5.73;;;;;;;;;;5135681;28;20508;-56
2023/06/16 02:21:21;;;;;;;7.73;4.67;;;;;;;;;;5131974;28;20479;-57
2023/06/16 02:23:48;;;;;;;9.53;5.07;;;16.50;99.90;;;;;;5131998;28;20462;-52
2023/06/16 02:26:17;;;;;;;10.33;5.83;;;15.00;99.90;;;;;;5136515;28;20461;-54
2023/06/16 02:28:47;;;;;;;12.13;4.77;;;16.50;99.90;;;;;;5136332;28;20440;-55
2023/06/16 02:31:17;;;;;;;8.07;4.53;;;16.60;99.90;;;;;;5136716;28;20454;-54
2023/06/16 02:33:44;;;;;;;5.13;4.57;;;16.40;99.90;;;;;;5136391;28;20460;-54
2023/06/16 02:36:13;;;;;;;7.93;4.90;;;;;;;;;;5136067;28;20441;-55
2023/06/16 02:38:40;;;;;;;7.10;4.93;;;16.50;99.90;;;;;;5137644;28;20477;-53
2023/06/16 02:41:08;;;;;;;9.20;5.13;;;;;;;;;;5140280;28;20444;-52
2023/06/16 02:43:35;;;;;;;6.63;5.30;;;;;;;;;;5139976;28;20505;-53
2023/06/16 02:46:03;;;;;;;11.90;5.50;;;16.20;99.90;;;;;;5140431;28;20463;-54
2023/06/16 02:48:30;;;;;;;5.93;5.20;;;16.50;99.90;;;;;;5140248;28;20468;-51
2023/06/16 02:50:57;;;;;;;6.70;4.50;;;;;;;;;;5139538;28;20470;-53
2023/06/16 02:53:25;;;;;;;7.70;5.03;;;;;;;;;;5139134;28;20785;-57
2023/06/16 02:55:52;;;;;;;5.67;5.13;;;16.50;99.90;;;;;;5138903;28;20436;-52
2023/06/16 02:58:20;;;;;;;7.90;4.83;;;15.90;99.90;;;;;;5138678;28;20464;-53
2023/06/16 03:00:46;;;;;;;10.17;5.87;;;16.70;99.90;;;;;;5138968;28;20471;-54
2023/06/16 03:03:16;;;;;;;7.00;4.87;;;16.30;99.90;;;;;;5137894;28;20480;-55
2023/06/16 03:05:43;;;;;;;9.07;5.57;;;;;;;;;;5138644;28;20474;-58
2023/06/16 03:08:10;;;;;;;8.47;4.60;;;;;;;;;;5138484;28;20441;-55
2023/06/16 03:10:37;;;;;;;7.20;4.27;;;16.50;99.90;;;;;;5138932;28;20481;-58
2023/06/16 03:13:04;;;;;;;9.43;4.47;;;;;;;;;;5138800;28;20506;-55
2023/06/16 03:15:31;;;;;;;10.00;5.03;;;16.50;99.90;;;;;;5138647;28;20470;-52
2023/06/16 03:17:58;;;;;;;11.00;5.23;;;;;;;;;;5131615;28;20437;-54
2023/06/16 03:20:29;;;;;;;6.63;4.47;;;16.70;99.90;;;;;;5138055;28;20491;-57
2023/06/16 03:22:56;;;;;;;10.13;5.23;;;;;;;;;;5138418;28;20504;-56
2023/06/16 03:25:23;;;;;;;7.47;5.17;;;16.40;99.90;;;;;;5138217;28;20444;-53
2023/06/16 03:27:50;;;;;;;10.63;6.43;;;16.50;99.90;;;;;;5137633;28;20524;-53
2023/06/16 03:30:19;;;;;;;8.67;5.70;;;16.60;99.90;;;;;;5138343;28;20470;-55
2023/06/16 03:32:46;;;;;;;6.97;4.80;;;;;;;;;;5139041;28;20441;-56
2023/06/16 03:35:13;;;;;;;6.13;5.40;;;;;;;;;;5139473;28;20436;-52
2023/06/16 03:37:41;;;;;;;9.17;5.70;;;16.40;99.90;;;;;;5138721;28;20432;-55
2023/06/16 03:40:09;;;;;;;5.97;5.20;;;17.00;99.90;;;;;;5138634;28;20472;-54
2023/06/16 03:42:36;;;;;;;11.90;5.33;;;16.40;99.90;;;;;;5139293;28;20417;-54
2023/06/16 03:45:07;;;;;;;7.60;5.93;;;16.70;99.90;;;;;;5138902;28;20433;-55
2023/06/16 03:47:34;;;;;;;6.47;5.33;;;16.50;99.90;;;;;;5138789;28;20523;-55
2023/06/16 03:50:03;;;;;;;6.90;5.17;;;;;;;;;;5138067;28;20429;-52
2023/06/16 03:52:30;;;;;;;8.83;6.10;;;;;;;;;;5138843;28;20437;-57
2023/06/16 03:54:58;;;;;;;8.50;6.17;;;16.60;99.90;;;;;;5138786;28;20449;-56
2023/06/16 03:57:28;;;;;;;10.13;5.90;;;16.70;99.90;;;;;;5139016;28;20440;-54
2023/06/16 03:59:55;;;;;;;8.63;6.30;;;;;;;;;;5138059;28;20492;-57
2023/06/16 04:02:22;;;;;;;7.10;6.13;;;;;;;;;;5138819;28;20476;-51
2023/06/16 04:04:52;;;;;;;9.83;6.57;;;17.00;99.90;;;;;;5138341;28;20445;-55
2023/06/16 04:07:18;;;;;;;6.70;5.87;;;16.80;99.90;;;;;;5138318;28;20741;-52
2023/06/16 04:09:45;;;;;;;10.60;6.83;;;16.80;99.90;;;;;;5138219;28;20424;-53
2023/06/16 04:12:16;;;;;;;9.60;5.73;;;16.70;99.90;;;;;;5137633;28;20461;-54
2023/06/16 04:14:45;;;;;;;6.73;5.97;;;;;;;;;;5137144;28;20471;-55
2023/06/16 04:17:12;;;;;;;6.87;5.47;;;;;;;;;;5137040;28;20468;-57
2023/06/16 04:19:41;;;;;;;7.73;5.67;;;;;;;;;;5137029;28;20476;-57
2023/06/16 04:22:08;;;;;;;12.37;6.00;;;17.00;99.90;;;;;;5137747;28;20441;-56
2023/06/16 04:24:35;;;;;;;10.03;6.50;;;16.80;99.90;;;;;;5137198;28;20468;-56
2023/06/16 04:27:02;;;;;;;11.03;6.80;;;16.90;99.90;;;;;;5136210;28;20859;-54
2023/06/16 04:29:31;;;;;;;20.03;7.00;;;17.10;99.90;;;;;;5131451;28;20468;-56
2023/06/16 04:32:02;;;;;;;9.07;6.97;;;17.00;99.90;;;;;;5135091;28;20405;-52
2023/06/16 04:34:31;;;;;;;8.77;5.57;;;;;;;;;;5137266;28;20428;-55
2023/06/16 04:36:58;;;;;;;9.10;6.13;;;16.90;99.90;;;;;;5137585;28;20427;-55
2023/06/16 04:39:25;;;;;;;10.13;6.90;;;16.80;99.90;;;;;;5137115;28;20465;-56
2023/06/16 04:41:52;;;;;;;7.93;6.70;;;;;;;;;;5136682;28;20471;-57
2023/06/16 04:44:19;;;;;;;5.70;5.20;;;17.10;99.90;;;;;;5134334;28;20443;-58
2023/06/16 04:46:48;;;;;;;12.20;7.13;;;;;;;;;;5131364;28;20528;-57
2023/06/16 04:49:15;;;;;;;9.07;6.50;;;16.90;99.90;;;;;;5131901;28;20425;-54
2023/06/16 04:51:44;;;;;;;11.60;7.20;;;;;;;;;;5136778;28;20425;-54
2023/06/16 04:54:12;;;;;;;7.30;6.30;;;16.90;99.90;;;;;;5136712;28;20447;-56
2023/06/16 04:56:40;;;;;;;7.20;5.57;;;17.00;99.90;;;;;;5136497;28;20428;-54
2023/06/16 04:59:08;;;;;;;7.00;5.70;;;;;;;;;;5136105;28;20463;-49
2023/06/16 05:01:35;;;;;;;6.47;5.70;;;;;;;;;;5136529;28;20479;-55
2023/06/16 05:04:03;;;;;;;17.13;6.10;;;16.60;99.90;;;;;;5136571;28;20475;-49
2023/06/16 05:06:35;;;;;;;10.30;7.47;;;17.00;99.90;;;;;;5135834;28;20421;-57
2023/06/16 05:09:01;;;;;;;8.87;5.67;;;17.00;99.90;;;;;;5136369;28;20425;-53
2023/06/16 05:11:30;;;;;;;6.70;5.43;;;17.00;99.90;;;;;;5135800;28;20463;-51
2023/06/16 05:13:57;;;;;;;9.00;5.43;;;16.60;99.90;;;;;;5136176;28;20445;-54
2023/06/16 05:16:24;;;;;;;6.93;5.77;;;;;;;;;;5135842;28;20451;-51
2023/06/16 05:18:59;;;;;;;7.40;5.77;;;;;;;;;;5134793;28;20433;-56
2023/06/16 05:21:27;;;;;;;10.57;6.37;;;;;;;;;;5137611;28;20475;-56
2023/06/16 05:23:55;;;;;;;12.10;5.50;;;;;;;;;;5137545;28;20428;-54
2023/06/16 05:26:22;;;;;;;8.90;6.00;;;16.90;99.90;;;;;;5138454;28;20468;-55
2023/06/16 05:28:49;;;;;;;7.00;5.80;;;17.40;99.90;;;;;;5137275;28;20435;-51
2023/06/16 05:31:16;;;;;;;7.43;6.40;;;;;;;;;;5136690;28;20443;-53
2023/06/16 05:33:43;;;;;;;8.07;6.40;;;17.20;99.90;;;;;;5137376;28;20441;-49
2023/06/16 05:36:10;;;;;;;11.83;6.07;;;;;;;;;;5137004;28;20441;-50
2023/06/16 05:38:38;;;;;;;6.10;5.23;;;17.00;99.90;;;;;;5136508;28;20470;-54
2023/06/16 05:41:10;;;;;;;10.30;6.90;;;17.40;99.90;;;;;;5136805;28;20491;-57
2023/06/16 05:43:37;;;;;;;10.83;6.77;;;17.40;99.90;;;;;;5137378;28;20444;-55
2023/06/16 05:46:11;;;;;;;9.57;6.27;;;;;;;;;;5137117;28;20452;-56
2023/06/16 05:48:38;;;;;;;8.57;6.00;;;;;;;;;;5136453;28;20433;-56
2023/06/16 05:51:06;;;;;;;7.60;5.60;;;;;;;;;;5137133;28;20417;-55
2023/06/16 05:53:33;;;;;;;9.00;5.60;;;17.40;99.90;;;;;;5137096;28;20445;-55
2023/06/16 05:56:01;;;;;;;7.10;5.30;;;17.90;99.90;;;;;;5136401;28;20475;-55
2023/06/16 05:58:28;;;;;;;8.93;7.27;;;17.70;99.90;;;;;;5136350;28;20432;-54
2023/06/16 06:00:55;;;;;;;6.47;5.77;;;;;;;;;;5135699;28;20488;-53
2023/06/16 06:03:24;;;;;;;7.23;5.10;;;17.70;99.90;;;;;;5135392;28;20440;-56
2023/06/16 06:05:51;;;;;;;7.63;5.07;;;17.50;99.90;;;;;;5135209;28;20559;-53
2023/06/16 06:08:22;;;;;;;7.13;5.40;;;17.70;99.90;;;;;;5135271;28;20508;-54
2023/06/16 06:10:49;;;;;;;5.97;4.47;;;18.00;99.90;;;;;;5136959;28;20464;-54
2023/06/16 06:13:18;;;;;;;5.20;3.87;;;;;;;;;;5137318;28;20440;-56
2023/06/16 06:15:45;;;;;;;8.60;5.93;;;;;;;;;;5140632;28;20433;-57
2023/06/16 06:18:12;;;;;;;10.17;5.70;;;;;;;;;;5140503;28;20468;-55
2023/06/16 06:20:39;;;;;;;11.00;5.73;;;;;;;;;;5140338;28;20481;-57
2023/06/16 06:23:09;;;;;;;6.23;5.57;;;17.70;99.90;;;;;;5140386;28;20460;-57
2023/06/16 06:25:36;;;;;;;8.33;5.10;;;;;;;;;;5139551;28;20492;-54
2023/06/16 06:28:04;;;;;;;7.83;4.90;;;17.30;99.90;;;;;;5139627;28;20448;-50
2023/06/16 06:30:34;;;;;;;8.03;4.83;;;17.80;99.90;;;;;;5140456;28;20889;-56
2023/06/16 06:33:04;;;;;;;7.47;4.67;;;18.00;99.90;;;;;;5140514;28;20424;-56
2023/06/16 06:35:31;;;;;;;11.10;7.37;;;17.70;99.90;;;;;;5140338;28;20436;-56
2023/06/16 06:37:59;;;;;;;6.10;4.73;;;17.40;99.90;;;;;;5139334;28;20464;-58
2023/06/16 06:40:26;;;;;;;6.70;4.57;;;;;;;;;;5138711;28;20480;-52
2023/06/16 06:42:53;;;;;;;6.97;5.40;;;;;;;;;;5138871;28;20436;-55
2023/06/16 06:45:20;;;;;;;7.27;4.30;;;17.40;99.90;;;;;;5138532;28;20440;-57
2023/06/16 06:47:48;;;;;;;6.10;4.70;;;17.60;99.90;;;;;;5139034;28;20420;-53
2023/06/16 06:50:15;;;;;;;6.00;4.50;;;17.40;99.90;;;;;;5140040;28;20434;-54
2023/06/16 06:52:42;;;;;;;5.77;5.17;;;;;;;;;;5139474;28;20488;-57
2023/06/16 06:55:10;;;;;;;5.27;4.77;;;17.50;99.90;;;;;;5138659;28;20440;-54
2023/06/16 06:57:38;;;;;;;9.07;5.40;;;17.40;99.90;;;;;;5138541;28;20464;-56
2023/06/16 07:00:10;;;;;;;4.53;4.13;;;17.20;99.90;;;;;;5134297;28;20448;-56
2023/06/16 07:02:37;;;;;;;7.27;5.20;;;17.70;99.90;;;;;;5119160;28;20920;-57
2023/06/16 07:05:06;;;;;;;5.43;4.60;;;16.80;99.90;;;;;;5139651;28;20421;-54
2023/06/16 07:07:33;;;;;;;6.33;5.20;;;;;;;;;;5123519;28;20452;-54
2023/06/16 07:10:00;;;;;;;6.13;4.80;;;17.40;99.90;;;;;;5135906;28;20727;-57
2023/06/16 07:12:27;;;;;;;6.60;4.80;;;17.50;99.90;;;;;;5133548;28;20443;-58
2023/06/16 07:14:58;;;;;;;7.60;4.90;;;18.00;99.90;;;;;;5138405;28;20473;-57
2023/06/16 07:17:30;;;;;;;5.60;4.30;;;17.40;99.90;;;;;;5138366;28;20441;-50
2023/06/16 07:19:56;;;;;;;13.40;7.23;;;17.50;99.90;;;;;;5125398;28;20471;-57
2023/06/16 07:22:25;;;;;;;9.23;5.57;;;17.50;99.90;;;;;;5122091;28;20533;-53
2023/06/16 07:24:52;;;;;;;5.73;4.90;;;18.10;99.90;;;;;;5131864;28;20417;-46
2023/06/16 07:27:18;;;;;;;6.60;5.23;;;17.40;99.90;;;;;;5139327;28;20417;-49
2023/06/16 07:29:46;;;;;;;5.70;4.30;;;;;;;;;;5117571;28;20455;-56
2023/06/16 07:32:13;;;;;;;5.50;4.80;;;;;;;;;;5118870;28;20478;-57
2023/06/16 07:34:41;;;;;;;7.80;5.60;;;;;;;;;;5117539;28;20531;-55
2023/06/16 07:37:09;;;;;;;6.83;4.30;;;17.80;99.90;;;;;;5119949;28;20468;-51
2023/06/16 07:39:37;;;;;;;7.37;4.73;;;;;;;;;;5133768;28;20480;-52
2023/06/16 07:42:04;;;;;;;8.37;5.40;;;;;;;;;;5127608;28;20476;-52
2023/06/16 07:44:31;;;;;;;7.57;5.50;;;17.80;99.90;;;;;;5121151;28;20852;-55
2023/06/16 07:46:58;;;;;;;8.40;5.73;;;17.80;99.90;;;;;;5134170;28;20443;-55
2023/06/16 07:49:26;;;;;;;8.60;5.97;;;;;;;;;;5129345;28;20472;-57
2023/06/16 07:51:56;;;;;;;6.70;5.33;;;17.90;99.90;;;;;;5128268;28;20909;-57
2023/06/16 07:54:23;;;;;;;7.30;6.57;;;;;;;;;;5132323;28;20453;-57
2023/06/16 07:56:54;;;;;;;7.77;6.50;;;18.30;99.90;;;;;;5138526;28;20519;-57
2023/06/16 07:59:21;;;;;;;11.00;5.50;;;;;;;;;;5137731;28;20425;-59
2023/06/16 08:01:48;;;;;;;7.27;5.57;;;18.40;99.90;;;;;;5130263;28;20461;-60
2023/06/16 08:04:15;;;;;;;10.80;6.90;;;19.20;99.90;;;;;;5133907;28;20472;-59
2023/06/16 08:06:42;;;;;;;7.67;6.83;;;;;;;;;;5131894;28;20468;-60
2023/06/16 08:09:14;;;;;;;9.00;6.20;;;18.70;99.90;;;;;;5134041;28;20427;-58
2023/06/16 08:11:44;;;;;;;8.20;7.40;;;;;;;;;;5139338;28;20468;-55
2023/06/16 08:14:14;;;;;;;8.97;6.47;;;19.40;99.90;;;;;;5138094;28;20476;-57
2023/06/16 08:16:44;;;;;;;9.03;5.93;;;;;;;;;;5138597;28;20437;-57
2023/06/16 08:19:11;;;;;;;6.13;5.53;;;;;;;;;;5138525;28;20420;-60
2023/06/16 08:21:38;;;;;;;7.13;5.67;;;;;;;;;;5137994;28;20772;-58
2023/06/16 08:24:08;;;;;;;10.30;6.77;;;19.20;99.90;;;;;;5122976;28;20456;-60
2023/06/16 08:26:38;;;;;;;8.97;6.27;;;19.50;99.90;;;;;;5117341;28;20480;-61
2023/06/16 08:29:05;;;;;;;7.80;7.00;;;19.50;99.90;;;;;;5117018;28;20533;-64
2023/06/16 08:31:37;;;;;;;8.03;7.17;;;;;;;;;;5118006;28;20447;-58
2023/06/16 08:34:07;;;;;;;6.23;5.40;;;22.20;99.90;;;;;;5136729;28;20464;-56
2023/06/16 08:36:34;;;;;;;7.10;5.10;;;23.80;99.90;;;;;;5129154;28;20425;-61
2023/06/16 08:39:02;;;;;;;8.30;6.53;;;;;;;;;;5137296;28;20443;-56
2023/06/16 08:41:30;;;;;;;5.90;5.40;;;24.60;99.90;;;;;;5136327;28;20465;-63
2023/06/16 08:43:59;;;;;;;5.70;5.07;;;24.10;99.90;;;;;;5136196;28;20441;-63
2023/06/16 08:46:26;;;;;;;6.07;5.57;;;23.60;99.90;;;;;;5126422;28;20539;-63
2023/06/16 08:48:54;;;;;;;7.00;5.40;;;24.90;99.90;;;;;;5126027;28;20440;-62
2023/06/16 08:51:24;;;;;;;7.17;5.77;;;22.30;99.90;;;;;;5121210;28;20468;-62
2023/06/16 08:53:57;;;;;;;6.20;5.10;;;21.70;99.90;;;;;;5116923;28;20532;-64
2023/06/16 08:56:26;;;;;;;5.90;5.30;;;20.70;99.90;;;;;;5117215;28;20409;-61
2023/06/16 08:58:54;;;;;;;9.77;5.63;;;;;;;;;;5125668;28;20543;-64
2023/06/16 09:01:22;;;;;;;5.67;4.17;;;19.90;99.90;;;;;;5133654;28;20468;-60
2023/06/16 09:03:50;;;;;;;6.90;5.00;;;;;;;;;;5133828;28;20543;-62
2023/06/16 09:06:18;;;;;;;4.57;4.07;;;18.80;99.90;;;;;;5137623;28;20460;-59
2023/06/16 09:08:46;;;;;;;10.90;6.97;;;;;;;;;;5134376;28;20476;-61
2023/06/16 09:11:13;;;;;;;4.13;3.50;;;;;;;;;;5131389;28;20440;-58
2023/06/16 09:13:43;;;;;;;7.43;3.70;;;18.30;99.90;;;;;;5134387;28;20495;-62
2023/06/16 09:16:10;;;;;;;3.70;2.90;;;;;;;;;;5135258;28;20441;-62
2023/06/16 09:18:40;;;;;;;5.47;3.37;;;17.80;99.90;;;;;;5135077;28;20445;-56
2023/06/16 09:21:08;;;;;;;4.80;4.20;;;;;;;;;;5137497;28;20471;-61
2023/06/16 09:23:36;;;;;;;3.27;2.97;;;17.60;99.90;;;;;;5137903;28;20474;-59
2023/06/16 09:26:12;;;;;;;4.73;3.47;;;17.50;99.90;;;;;;5136341;28;20428;-58
2023/06/16 09:28:39;;;;;;;3.37;3.07;;;;;;;;;;5136018;28;20473;-62
2023/06/16 09:31:07;;;;;;;7.60;3.60;;;17.80;99.90;;;;;;5131847;28;20457;-63
2023/06/16 09:33:34;;;;;;;5.47;4.37;;;17.70;99.90;;;;;;5128450;28;20455;-61
2023/06/16 09:36:03;;;;;;;4.50;4.00;;;18.20;99.90;;;;;;5128761;28;20920;-62
2023/06/16 09:38:36;;;;;;;8.97;4.60;;;17.90;99.90;;;;;;5128755;28;20448;-65
2023/06/16 09:41:10;;;;;;;5.50;4.60;;;17.50;99.90;;;;;;5128890;28;20476;-60
2023/06/16 09:43:39;;;;;;;5.67;4.63;;;18.10;99.90;;;;;;5119974;28;20440;-61
2023/06/16 09:46:13;;;;;;;4.23;3.83;;;18.10;99.90;;;;;;5126591;28;20460;-62
2023/06/16 09:48:47;;;;;;;5.73;3.90;;;18.40;99.90;;;;;;5133398;28;20454;-60
2023/06/16 09:51:18;;;;;;;4.37;3.97;;;18.60;99.90;;;;;;5132862;28;20532;-57
2023/06/16 09:53:48;;;;;;;3.83;3.43;;;19.00;99.90;;;;;;5128883;28;20431;-65
2023/06/16 09:56:16;;;;;;;4.60;4.00;;;;;;;;;;5124293;28;20473;-62
2023/06/16 09:58:43;;;;;;;5.20;3.83;;;;;;;;;;5121441;28;20437;-67
2023/06/16 10:01:13;;;;;;;4.10;3.50;;;19.70;99.90;;;;;;5127042;28;20480;-65
2023/06/16 10:03:43;;;;;;;4.17;3.77;;;19.90;99.90;;;;;;5136504;28;20536;-60
2023/06/16 10:06:15;;;;;;;5.37;3.00;;;20.10;99.90;;;;;;5136585;28;20504;-63
2023/06/16 10:08:42;;;;;;;3.97;3.57;;;;;;;;;;5135881;28;20458;-57
2023/06/16 10:11:12;;;;;;;4.33;3.80;;;20.60;99.90;;;;;;5128107;28;20448;-63
2023/06/16 10:13:41;;;;;;;4.60;4.20;;;20.20;99.90;;;;;;5130669;28;20455;-61
2023/06/16 10:16:11;;;;;;;5.20;4.80;;;20.70;99.90;;;;;;5125398;28;20475;-62
2023/06/16 10:18:42;;;;;;;6.10;4.27;;;20.80;99.90;;;;;;5132938;28;20460;-57
2023/06/16 10:21:10;;;;;;;4.93;3.50;;;20.40;99.90;;;;;;5133118;28;20421;-62
2023/06/16 10:23:37;;;;;;;4.97;4.43;;;;;;;;;;5131784;28;20516;-68
2023/06/16 10:26:06;;;;;;;4.00;3.60;;;20.80;99.90;;;;;;5132240;28;20451;-64
2023/06/16 10:28:36;;;;;;;7.93;4.73;;;20.80;99.90;;;;;;5136823;28;20473;-54
2023/06/16 10:31:05;;;;;;;4.40;3.90;;;20.70;99.90;;;;;;5129424;28;20918;-61
2023/06/16 10:33:52;;;;;;;4.50;3.83;;;20.40;99.90;;;;;;5121034;28;20965;-60
2023/06/16 10:36:23;;;;;;;5.13;3.87;;;20.30;99.90;;;;;;5133553;28;20464;-60
2023/06/16 10:38:57;;;;;;;4.83;4.23;;;20.50;99.90;;;;;;5132411;28;20492;-64
2023/06/16 10:41:24;;;;;;;4.37;3.90;;;;;;;;;;5133039;28;20474;-63
2023/06/16 10:43:52;;;;;;;4.73;4.20;;;19.90;99.90;;;;;;5133889;28;20461;-58
2023/06/16 10:46:21;;;;;;;4.27;3.60;;;19.50;99.90;;;;;;5137259;28;20857;-57
2023/06/16 10:49:11;;;;;;;4.83;4.10;;;19.40;99.90;;;;;;5137098;28;20938;-60
2023/06/16 10:51:48;;;;;;;5.03;3.93;;;19.20;99.90;;;;;;5132490;28;20421;-55
2023/06/16 10:54:17;;;;;;;5.53;4.90;;;19.60;99.90;;;;;;5134955;28;20444;-60
2023/06/16 10:57:04;;;;;;;4.63;4.17;;;19.40;99.90;;;;;;5129870;28;20433;-59
2023/06/16 10:59:55;;;;;;;4.60;3.70;;;19.20;99.90;;;;;;5130758;28;20447;-63
2023/06/16 11:02:23;;;;;;;7.00;4.03;;;19.30;99.90;;;;;;5138150;28;20444;-58
2023/06/16 11:05:10;;;;;;;5.80;4.43;;;19.20;99.90;;;;;;5139907;28;20424;-57
2023/06/16 11:07:38;;;;;;;6.00;4.00;;;19.60;99.90;;;;;;5134918;28;20417;-57
2023/06/16 11:10:06;;;;;;;5.50;4.80;;;19.70;99.90;;;;;;5136866;28;20450;-58
2023/06/16 11:12:33;;;;;;;3.90;3.50;;;20.60;99.90;;;;;;5134868;28;20475;-59
2023/06/16 11:15:04;;;;;;;4.83;3.40;;;20.70;99.90;;;;;;5139734;28;20472;-56
2023/06/16 11:17:31;;;;;;;9.50;4.97;;;;;;;;;;5140495;28;20456;-61
2023/06/16 11:19:58;;;;;;;9.00;4.83;;;;;;;;;;5139953;28;20417;-59
2023/06/16 11:22:32;;;;;;;4.47;4.07;;;18.50;99.90;;;;;;5140127;28;20484;-60
2023/06/16 11:25:00;;;;;;;5.20;4.47;;;;;;;;;;5140285;28;20425;-58
2023/06/16 11:27:27;;;;;;;6.53;4.73;;;;;;;;;;5139687;28;20443;-61
2023/06/16 11:29:57;;;;;;;5.30;4.13;;;20.30;99.90;;;;;;5140024;28;20461;-57
2023/06/16 11:32:27;;;;;;;7.43;4.27;;;20.40;99.90;;;;;;5140028;28;20421;-60
2023/06/16 11:34:55;;;;;;;5.93;4.07;;;;;;;;;;5140050;28;20453;-57
2023/06/16 11:37:22;;;;;;;5.33;4.00;;;;;;;;;;5139813;28;20889;-62
2023/06/16 11:39:49;;;;;;;6.20;4.53;;;;;;;;;;5139677;28;20424;-56
2023/06/16 11:42:17;;;;;;;5.93;4.17;;;;;;;;;;5139813;28;20465;-60
2023/06/16 11:44:44;;;;;;;5.70;3.60;;;;;;;;;;5140230;28;20424;-58
2023/06/16 11:47:11;;;;;;;5.20;4.40;;;;;;;;;;5139721;28;20467;-57
2023/06/16 11:49:42;;;;;;;5.63;4.63;;;21.80;99.90;;;;;;5140008;28;20455;-57
2023/06/16 11:52:10;;;;;;;5.63;4.10;;;;;;;;;;5139489;28;20480;-58
2023/06/16 11:54:37;;;;;;;5.50;4.33;;;;;;;;;;5139647;28;20489;-54
2023/06/16 11:57:04;;;;;;;6.60;4.37;;;21.20;99.90;;;;;;5138709;28;20437;-62
2023/06/16 11:59:32;;;;;;;5.53;3.73;;;;;;;;;;5137885;28;20581;-58
2023/06/16 12:02:01;;;;;;;5.80;4.80;;;21.00;99.90;;;;;;5139109;28;20480;-54
2023/06/16 12:04:31;;;;;;;4.07;3.33;;;21.10;99.90;;;;;;5139405;28;20468;-55
2023/06/16 12:07:00;;;;;;;4.60;3.87;;;20.30;99.90;;;;;;5139527;28;20446;-55
2023/06/16 12:09:39;;;;;;;7.50;4.80;;;19.80;99.90;;;;;;5139456;28;20495;-53
2023/06/16 12:12:08;;;;;;;5.30;4.00;;;19.50;99.90;;;;;;5138417;28;20440;-61
2023/06/16 12:14:37;;;;;;;4.93;4.20;;;19.50;99.90;;;;;;5139204;28;20421;-61
2023/06/16 12:17:04;;;;;;;6.63;4.53;;;;;;;;;;5139442;28;20432;-56
2023/06/16 12:19:31;;;;;;;7.40;5.03;;;;;;;;;;5139185;28;20471;-59
2023/06/16 12:22:01;;;;;;;7.60;5.40;;;19.00;99.90;;;;;;5139063;28;20512;-59
2023/06/16 12:24:29;;;;;;;7.23;4.63;;;19.00;99.90;;;;;;5138842;28;20444;-57
2023/06/16 12:26:56;;;;;;;6.80;4.10;;;19.00;99.90;;;;;;5138326;28;20467;-60
2023/06/16 12:29:27;;;;;;;6.40;4.60;;;19.20;99.90;;;;;;5138643;28;20420;-54
2023/06/16 12:31:55;;;;;;;4.80;4.10;;;19.50;99.90;;;;;;5138889;28;20450;-59
2023/06/16 12:34:23;;;;;;;5.53;3.90;;;19.60;99.90;;;;;;5138899;28;20453;-59
2023/06/16 12:36:51;;;;;;;5.30;4.13;;;19.70;99.90;;;;;;5138393;28;20436;-59
2023/06/16 12:39:20;;;;;;;4.67;4.00;;;19.90;99.90;;;;;;5138304;28;20452;-55
2023/06/16 12:42:01;;;;;;;6.00;4.47;;;19.80;99.90;;;;;;5138679;28;20421;-57
2023/06/16 12:44:44;;;;;;;6.83;4.60;;;20.40;99.90;;;;;;5138887;28;20460;-58
2023/06/16 12:47:12;;;;;;;5.63;4.17;;;20.00;99.90;;;;;;5137840;28;20449;-57
2023/06/16 12:49:40;;;;;;;5.87;4.00;;;;;;;;;;5137678;28;20449;-58
2023/06/16 12:52:07;;;;;;;5.40;4.10;;;20.20;99.90;;;;;;5138812;28;20417;-60
2023/06/16 12:54:36;;;;;;;6.27;3.83;;;;;;;;;;5138744;28;20441;-55
2023/06/16 12:57:03;;;;;;;5.67;4.20;;;;;;;;;;5138038;28;20452;-59
2023/06/16 12:59:31;;;;;;;4.50;4.00;;;;;;;;;;5132479;28;20436;-60
2023/06/16 13:01:58;;;;;;;4.73;3.80;;;;;;;;;;5132029;28;20498;-60
2023/06/16 13:04:25;;;;;;;4.40;4.00;;;;;;;;;;5138796;28;20428;-57
2023/06/16 13:06:52;;;;;;;8.03;4.50;;;;;;;;;;5136498;28;20516;-56
2023/06/16 13:09:20;;;;;;;5.57;4.67;;;;;;;;;;5136646;28;20431;-58
2023/06/16 13:11:54;;;;;;;5.03;4.00;;;19.90;99.90;;;;;;5138347;28;20425;-59
2023/06/16 13:14:21;;;;;;;4.50;4.03;;;19.90;99.90;;;;;;5134708;28;20998;-61
2023/06/16 13:16:48;;;;;;;4.70;4.20;;;;;;;;;;5134778;28;20436;-60
2023/06/16 13:19:15;;;;;;;6.60;5.07;;;;;;;;;;5134658;28;20529;-60
2023/06/16 13:21:43;;;;;;;4.97;3.80;;;;;;;;;;5133701;28;20444;-60
2023/06/16 13:24:10;;;;;;;5.67;4.37;;;;;;;;;;5133691;28;20566;-60
2023/06/16 13:26:37;;;;;;;6.53;4.17;;;;;;;;;;5132038;28;20428;-62
2023/06/16 13:29:06;;;;;;;5.27;3.90;;;20.40;99.90;;;;;;5136464;28;20444;-58
2023/06/16 13:31:33;;;;;;;4.93;3.53;;;;;;;;;;5138497;28;20476;-57
2023/06/16 13:34:00;;;;;;;5.20;3.93;;;;;;;;;;5137787;28;20440;-58